Time;durP1;ratioP1;P1;durP2;ratioP2;P2;SDS_P1;SDS_P2;PMS_P1;PMS_P2;Temp;Humidity;BMP_temperature;BMP_pressure;BME280_temperature;BME280_humidity;BME280_pressure;Samples;Min_cycle;Max_cycle;Signal;HPM_P1;HPM_P2
2021/04/12 00:00:42;;;;;;;4.10;1.50;;;;;;;4.25;100.00;101197.66;4893495;29;20223;-68
2021/04/12 00:03:21;;;;;;;5.20;1.70;;;;;;;4.26;100.00;101198.47;4886740;29;20207;-69
2021/04/12 00:06:00;;;;;;;3.70;1.57;;;;;;;4.26;100.00;101199.28;4897581;29;20773;-68
2021/04/12 00:08:29;;;;;;;5.10;1.87;;;;;;;4.07;100.00;101204.81;4913914;29;20236;-67
2021/04/12 00:10:54;;;;;;;4.27;1.50;;;;;;;3.86;100.00;101196.25;4897200;29;20224;-67
2021/04/12 00:13:26;;;;;;;2.53;1.60;;;;;;;4.00;100.00;101197.84;4896698;29;20228;-68
2021/04/12 00:16:00;;;;;;;4.30;1.30;;;;;;;3.64;100.00;101197.63;4897016;29;20289;-69
2021/04/12 00:18:32;;;;;;;4.67;1.40;;;;;;;3.84;100.00;101203.72;4897404;29;20211;-67
2021/04/12 00:20:59;;;;;;;2.50;1.37;;;;;;;3.90;100.00;101202.84;4881143;29;20722;-68
2021/04/12 00:23:42;;;;;;;2.87;1.40;;;;;;;3.98;100.00;101205.28;4879489;29;20208;-68
2021/04/12 00:26:47;;;;;;;3.00;1.40;;;;;;;3.73;100.00;101207.06;4882350;29;20291;-68
2021/04/12 00:29:18;;;;;;;2.40;1.33;;;;;;;3.66;100.00;101206.28;4912810;29;20207;-68
2021/04/12 00:31:52;;;;;;;2.50;1.30;;;;;;;3.81;100.00;101214.06;4910845;29;20265;-67
2021/04/12 00:34:21;;;;;;;3.60;1.40;;;;;;;3.92;100.00;101224.97;4896704;29;20196;-68
2021/04/12 00:37:05;;;;;;;5.27;1.20;;;;;;;3.79;100.00;101224.19;4911746;29;20228;-68
2021/04/12 00:39:36;;;;;;;5.70;1.57;;;;;;;3.72;100.00;101226.09;4912310;29;20196;-67
2021/04/12 00:42:16;;;;;;;3.73;1.30;;;;;;;3.71;100.00;101225.28;4911091;29;20808;-68
2021/04/12 00:45:01;;;;;;;1.97;1.00;;;;;;;3.72;100.00;101220.72;4896722;29;20196;-69
2021/04/12 00:47:37;;;;;;;3.43;1.27;;;;;;;3.59;100.00;101224.31;4912734;29;20246;-68
2021/04/12 00:50:39;;;;;;;5.97;1.60;;;;;;;3.43;100.00;101235.53;4912257;29;20200;-67
2021/04/12 00:53:26;;;;;;;2.60;1.33;;;;;;;3.51;100.00;101240.63;4911134;29;20235;-67
2021/04/12 00:55:55;;;;;;;2.20;1.10;;;;;;;3.54;100.00;101248.28;4912852;29;20609;-67
2021/04/12 00:58:33;;;;;;;5.07;1.30;;;;;;;3.43;100.00;101247.31;4896660;29;20213;-67
2021/04/12 01:01:24;;;;;;;4.63;1.33;;;;;;;3.43;100.00;101236.56;4896241;29;20714;-67
2021/04/12 01:03:55;;;;;;;4.77;1.03;;;;;;;3.36;100.00;101241.13;4889527;29;20291;-68
2021/04/12 01:06:58;;;;;;;4.60;1.10;;;;;;;3.54;100.00;101256.34;4914138;29;20328;-69
2021/04/12 01:09:49;;;;;;;3.70;1.10;;;;;;;3.39;100.00;101246.06;4875855;29;20667;-68
2021/04/12 01:12:56;;;;;;;5.37;1.37;;;;;;;3.33;100.00;101246.91;4912341;29;20621;-67
2021/04/12 01:16:00;;;;;;;4.80;1.07;;;;;;;3.36;100.00;101246.50;4911389;29;20227;-69
2021/04/12 01:18:51;;;;;;;3.27;1.10;;;;;;;3.36;100.00;101250.00;4883927;29;20208;-67
2021/04/12 01:21:53;;;;;;;5.27;1.40;;;;;;;3.42;100.00;101245.66;4899618;29;20273;-67
2021/04/12 01:24:42;;;;;;;2.57;1.40;;;;;;;3.13;100.00;101251.50;4915758;29;20731;-68
2021/04/12 01:27:56;;;;;;;4.60;1.30;;;;;;;3.27;100.00;101261.19;4916056;29;20236;-68
2021/04/12 01:30:59;;;;;;;3.13;1.20;;;;;;;3.15;100.00;101265.53;4847845;29;20635;-68
2021/04/12 01:33:42;;;;;;;4.87;1.10;;;;;;;3.29;100.00;101269.84;4915474;29;20569;-68
2021/04/12 01:36:28;;;;;;;4.17;1.40;;;;;;;3.10;100.00;101273.41;4883304;29;20270;-68
2021/04/12 01:39:02;;;;;;;3.03;1.20;;;;;;;3.17;100.00;101276.91;4883763;29;20212;-68
2021/04/12 01:41:50;;;;;;;2.30;1.10;;;;;;;3.17;100.00;101303.75;4915515;29;20318;-68
2021/04/12 01:44:38;;;;;;;3.70;1.37;;;;;;;3.14;100.00;101302.28;4914928;29;20283;-67
2021/04/12 01:47:34;;;;;;;3.23;1.30;;;;;;;2.99;100.00;101300.88;4898601;29;20252;-68
2021/04/12 01:50:22;;;;;;;4.87;1.43;;;;;;;2.90;100.00;101310.16;4899541;29;20200;-69
2021/04/12 01:53:04;;;;;;;3.60;1.40;;;;;;;2.81;100.00;101306.03;4884401;29;20635;-68
2021/04/12 01:55:51;;;;;;;5.87;1.40;;;;;;;2.74;100.00;101310.56;4867434;29;20232;-68
2021/04/12 01:58:17;;;;;;;4.93;1.20;;;;;;;2.79;100.00;101313.44;4899016;29;20273;-68
2021/04/12 02:01:00;;;;;;;4.47;1.40;;;;;;;2.84;100.00;101321.72;4915204;29;20255;-69
2021/04/12 02:04:03;;;;;;;3.30;1.50;;;;;;;2.86;100.00;101308.91;4897966;29;20334;-68
2021/04/12 02:06:40;;;;;;;5.43;1.63;;;;;;;2.68;100.00;101324.78;4914056;29;20250;-68
2021/04/12 02:09:21;;;;;;;4.60;1.60;;;;;;;2.85;100.00;101311.81;4883310;29;20600;-68
2021/04/12 02:12:03;;;;;;;4.00;1.60;;;;;;;2.88;100.00;101306.84;4866640;29;20923;-68
2021/04/12 02:15:04;;;;;;;4.70;1.47;;;;;;;2.58;100.00;101314.66;4883005;29;20180;-68
2021/04/12 02:17:47;;;;;;;2.77;1.40;;;;;;;2.88;100.00;101331.00;4870331;29;20219;-68
2021/04/12 02:21:02;;;;;;;4.33;1.50;;;;;;;2.73;100.00;101332.22;4914900;29;20176;-68
2021/04/12 02:23:43;;;;;;;4.10;1.50;;;;;;;2.50;100.00;101333.63;4905778;29;20208;-69
2021/04/12 02:26:33;;;;;;;2.97;1.53;;;;;;;2.57;100.00;101334.47;4897999;29;20589;-69
2021/04/12 02:28:59;;;;;;;3.83;1.50;;;;;;;2.68;100.00;101346.25;4906374;29;20671;-68
2021/04/12 02:31:38;;;;;;;3.03;1.90;;;;;;;2.35;100.00;101343.72;4914526;29;20224;-68
2021/04/12 02:34:22;;;;;;;3.47;1.80;;;;;;;2.46;100.00;101341.25;4896538;29;20279;-68
2021/04/12 02:37:17;;;;;;;4.67;1.80;;;;;;;2.43;100.00;101348.88;4914679;29;20345;-68
2021/04/12 02:39:55;;;;;;;5.30;2.00;;;;;;;2.38;100.00;101354.00;4872425;29;20226;-68
2021/04/12 02:42:41;;;;;;;5.27;2.60;;;;;;;2.40;100.00;101360.00;4913654;29;20882;-69
2021/04/12 02:45:14;;;;;;;2.90;2.33;;;;;;;2.31;100.00;101361.22;4897355;29;20338;-69
2021/04/12 02:47:57;;;;;;;3.70;2.33;;;;;;;2.29;100.00;101357.94;4882592;29;20223;-68
2021/04/12 02:50:26;;;;;;;3.87;2.27;;;;;;;2.17;100.00;101366.75;4897389;29;20718;-68
2021/04/12 02:53:24;;;;;;;5.07;2.70;;;;;;;2.41;100.00;101364.34;4912485;29;20255;-68
2021/04/12 02:56:27;;;;;;;3.83;2.77;;;;;;;2.29;100.00;101363.28;4912975;29;21035;-69
2021/04/12 02:59:15;;;;;;;5.43;2.77;;;;;;;2.30;100.00;101356.88;4914880;29;20287;-68
2021/04/12 03:02:22;;;;;;;5.83;2.80;;;;;;;2.29;100.00;101355.25;4913386;29;20611;-68
2021/04/12 03:04:58;;;;;;;5.60;2.97;;;;;;;2.27;100.00;101359.97;4914588;29;20555;-69
2021/04/12 03:07:33;;;;;;;4.83;3.37;;;;;;;2.28;100.00;101364.31;4913030;29;20614;-69
2021/04/12 03:10:15;;;;;;;5.87;3.50;;;;;;;2.30;100.00;101359.56;4913443;29;20219;-68
2021/04/12 03:12:50;;;;;;;7.10;3.20;;;;;;;2.19;100.00;101362.81;4908428;29;20240;-68
2021/04/12 03:15:31;;;;;;;6.40;3.53;;;;;;;2.16;100.00;101368.59;4894924;29;20239;-68
2021/04/12 03:18:20;;;;;;;9.63;3.73;;;;;;;2.06;100.00;101378.84;4909950;29;20217;-68
2021/04/12 03:21:19;;;;;;;5.20;3.13;;;;;;;2.00;100.00;101384.19;4894763;29;20229;-69
2021/04/12 03:24:12;;;;;;;4.63;3.00;;;;;;;2.07;100.00;101383.19;4897125;29;20549;-69
2021/04/12 03:26:52;;;;;;;7.07;3.77;;;;;;;2.10;100.00;101380.09;4912540;29;20216;-68
2021/04/12 03:29:33;;;;;;;9.50;3.50;;;;;;;2.13;100.00;101387.75;4881801;29;20215;-69
2021/04/12 03:32:18;;;;;;;5.03;3.63;;;;;;;2.16;100.00;101384.69;4909231;29;20331;-69
2021/04/12 03:35:02;;;;;;;5.63;3.30;;;;;;;2.06;100.00;101389.56;4912848;29;20199;-69
2021/04/12 03:37:41;;;;;;;9.63;3.70;;;;;;;2.00;100.00;101379.66;4920182;29;20296;-69
2021/04/12 03:40:19;;;;;;;4.93;3.43;;;;;;;1.91;100.00;101392.59;4895770;29;20264;-69
2021/04/12 03:43:00;;;;;;;6.63;3.53;;;;;;;2.13;100.00;101394.97;4911692;29;20194;-67
2021/04/12 03:45:32;;;;;;;6.27;3.60;;;;;;;2.08;100.00;101398.22;4912127;29;20224;-70
2021/04/12 03:48:31;;;;;;;6.67;3.47;;;;;;;2.19;100.00;101394.97;4912975;29;20211;-68
2021/04/12 03:51:11;;;;;;;7.27;3.60;;;;;;;2.07;100.00;101395.75;4906936;29;20220;-69
2021/04/12 03:53:57;;;;;;;7.90;3.60;;;;;;;2.11;100.00;101397.03;4905545;29;20686;-68
2021/04/12 03:56:53;;;;;;;6.80;3.50;;;;;;;2.04;100.00;101396.16;4906689;29;20217;-69
2021/04/12 03:59:42;;;;;;;8.43;3.60;;;;;;;2.15;100.00;101400.94;4879089;29;20296;-68
2021/04/12 04:02:47;;;;;;;6.20;3.70;;;;;;;2.08;100.00;101398.22;4906525;29;20224;-69
2021/04/12 04:05:40;;;;;;;5.77;3.23;;;;;;;2.05;100.00;101397.78;4912531;29;20647;-68
2021/04/12 04:08:29;;;;;;;8.33;3.60;;;;;;;2.06;100.00;101405.63;4893463;29;20216;-70
2021/04/12 04:11:06;;;;;;;6.67;3.60;;;;;;;2.00;100.00;101400.25;4911743;29;20231;-68
2021/04/12 04:13:41;;;;;;;7.03;3.50;;;;;;;2.11;100.00;101403.19;4911281;29;20235;-68
2021/04/12 04:16:30;;;;;;;6.73;3.30;;;;;;;2.06;100.00;101407.50;4911502;29;20635;-69
2021/04/12 04:19:18;;;;;;;6.37;3.37;;;;;;;2.06;100.00;101408.31;4912623;29;20204;-67
2021/04/12 04:22:15;;;;;;;7.60;3.63;;;;;;;2.08;100.00;101416.16;4895719;29;20235;-67
2021/04/12 04:25:01;;;;;;;10.53;3.87;;;;;;;2.00;100.00;101414.47;4913181;29;20196;-68
2021/04/12 04:27:48;;;;;;;7.53;3.43;;;;;;;1.99;100.00;101422.69;4912974;29;20228;-67
2021/04/12 04:30:53;;;;;;;8.33;4.17;;;;;;;2.02;100.00;101420.47;4913166;29;20217;-67
2021/04/12 04:33:19;;;;;;;6.27;3.70;;;;;;;1.89;100.00;101418.72;4912833;29;20218;-67
2021/04/12 04:35:50;;;;;;;8.00;4.70;;;;;;;2.03;100.00;101422.13;4912622;29;20216;-67
2021/04/12 04:38:41;;;;;;;10.73;3.90;;;;;;;1.93;100.00;101429.69;4896530;29;20220;-68
2021/04/12 04:41:31;;;;;;;5.53;3.30;;;;;;;1.97;100.00;101428.25;4896314;29;20235;-67
2021/04/12 04:44:19;;;;;;;6.83;3.30;;;;;;;2.04;100.00;101426.44;4913055;29;20663;-68
2021/04/12 04:47:07;;;;;;;6.80;3.60;;;;;;;2.08;100.00;101419.66;4898287;29;20231;-67
2021/04/12 04:49:41;;;;;;;7.03;3.80;;;;;;;2.16;100.00;101422.19;4913909;29;20568;-66
2021/04/12 04:52:34;;;;;;;7.90;3.97;;;;;;;2.17;100.00;101423.81;4915368;29;20278;-67
2021/04/12 04:55:27;;;;;;;5.97;3.80;;;;;;;2.31;100.00;101437.06;4917375;29;20573;-68
2021/04/12 04:58:12;;;;;;;8.00;4.03;;;;;;;2.46;100.00;101436.94;4885586;29;20307;-67
2021/04/12 05:01:09;;;;;;;10.27;3.80;;;;;;;2.41;100.00;101440.19;4916028;29;20219;-68
2021/04/12 05:04:23;;;;;;;8.53;3.70;;;;;;;2.56;100.00;101448.09;4915794;29;20215;-68
2021/04/12 05:07:07;;;;;;;5.43;3.83;;;;;;;2.63;100.00;101451.63;4890465;29;20235;-69
2021/04/12 05:09:48;;;;;;;11.20;3.93;;;;;;;2.53;100.00;101452.00;4915840;29;20197;-68
2021/04/12 05:13:04;;;;;;;5.20;3.67;;;;;;;2.79;100.00;101469.00;4913571;29;20228;-69
2021/04/12 05:15:58;;;;;;;6.27;3.30;;;;;;;2.67;100.00;101467.09;4864692;29;20222;-67
2021/04/12 05:18:43;;;;;;;7.33;3.10;;;;;;;2.78;100.00;101475.41;4876648;29;20214;-68
2021/04/12 05:21:18;;;;;;;5.07;3.30;;;;;;;2.86;100.00;101480.56;4890919;29;20238;-68
2021/04/12 05:23:55;;;;;;;4.97;3.53;;;;;;;3.05;100.00;101483.28;4914429;29;20187;-68
2021/04/12 05:26:39;;;;;;;6.47;3.27;;;;;;;3.09;100.00;101491.75;4898876;29;20639;-69
2021/04/12 05:29:09;;;;;;;5.60;3.57;;;;;;;3.17;100.00;101489.72;4914380;29;20598;-68
2021/04/12 05:31:44;;;;;;;5.50;3.13;;;;;;;2.98;100.00;101494.22;4911380;29;20232;-68
2021/04/12 05:34:18;;;;;;;5.27;4.07;;;;;;;3.03;100.00;101495.25;4927511;29;20192;-67
2021/04/12 05:37:08;;;;;;;7.37;4.57;;;;;;;3.32;100.00;101497.59;4895920;29;20739;-68
2021/04/12 05:39:49;;;;;;;5.30;3.77;;;;;;;3.45;100.00;101509.16;4896246;29;20213;-68
2021/04/12 05:42:40;;;;;;;6.53;3.50;;;;;;;3.42;100.00;101496.13;4910169;29;20239;-68
2021/04/12 05:45:33;;;;;;;6.13;3.87;;;;;;;3.43;100.00;101499.66;4911446;29;20674;-68
2021/04/12 05:48:10;;;;;;;4.70;3.50;;;;;;;3.61;100.00;101496.16;4896784;29;20212;-67
2021/04/12 05:51:03;;;;;;;7.73;3.90;;;;;;;3.60;100.00;101496.34;4910437;29;20313;-67
2021/04/12 05:54:04;;;;;;;4.10;3.10;;;;;;;3.55;100.00;101509.56;4927785;29;20707;-68
2021/04/12 05:56:45;;;;;;;6.03;3.40;;;;;;;3.52;100.00;101512.66;4896181;29;20233;-68
2021/04/12 05:59:30;;;;;;;5.27;3.60;;;;;;;3.53;100.00;101511.63;4895621;29;20220;-68
2021/04/12 06:02:20;;;;;;;3.30;3.00;;;;;;;3.83;100.00;101519.06;4896408;29;20227;-68
2021/04/12 06:04:58;;;;;;;5.57;3.13;;;;;;;3.43;100.00;101528.13;4914678;29;20196;-68
2021/04/12 06:07:35;;;;;;;4.17;2.60;;;;;;;3.56;100.00;101527.34;4914147;29;20235;-69
2021/04/12 06:10:10;;;;;;;6.17;2.90;;;;;;;3.73;100.00;101526.69;4916138;29;20199;-68
2021/04/12 06:13:02;;;;;;;5.27;2.70;;;;;;;3.94;100.00;101534.56;4913656;29;20718;-68
2021/04/12 06:16:07;;;;;;;4.60;2.70;;;;;;;3.55;100.00;101537.25;4883742;29;20298;-68
2021/04/12 06:18:54;;;;;;;5.30;3.40;;;;;;;3.57;100.00;101545.09;4914470;29;20323;-68
2021/04/12 06:21:56;;;;;;;6.23;3.13;;;;;;;3.71;100.00;101546.75;4898086;29;20310;-67
2021/04/12 06:24:53;;;;;;;6.53;3.00;;;;;;;3.53;100.00;101550.03;4915857;29;20192;-67
2021/04/12 06:27:39;;;;;;;6.40;2.97;;;;;;;3.63;100.00;101560.41;4897955;29;20231;-69
2021/04/12 06:30:23;;;;;;;3.80;2.80;;;;;;;3.74;100.00;101557.91;4915338;29;20198;-68
2021/04/12 06:32:55;;;;;;;5.50;2.90;;;;;;;3.67;100.00;101567.81;4914399;29;20234;-69
2021/04/12 06:35:39;;;;;;;4.00;2.53;;;;;;;3.89;100.00;101558.53;4901512;29;20303;-69
2021/04/12 06:38:22;;;;;;;5.83;3.00;;;;;;;3.83;100.00;101559.38;4894927;29;20221;-69
2021/04/12 06:41:06;;;;;;;4.57;2.80;;;;;;;3.92;100.00;101563.50;4878936;29;20770;-69
2021/04/12 06:43:58;;;;;;;3.27;2.73;;;;;;;3.95;100.00;101560.38;4880838;29;20192;-69
2021/04/12 06:46:48;;;;;;;4.83;2.90;;;;;;;4.03;100.00;101566.38;4878967;29;20221;-67
2021/04/12 06:49:45;;;;;;;5.37;3.20;;;;;;;4.04;100.00;101564.50;4896183;29;20208;-67
2021/04/12 06:52:28;;;;;;;4.77;2.70;;;;;;;4.02;100.00;101571.97;4911468;29;20224;-67
2021/04/12 06:55:16;;;;;;;3.03;2.40;;;;;;;4.05;100.00;101571.56;4882161;29;20259;-67
2021/04/12 06:58:09;;;;;;;8.33;2.73;;;;;;;4.08;100.00;101571.13;4914919;29;20241;-68
2021/04/12 07:00:40;;;;;;;3.63;2.60;;;;;;;4.18;100.00;101582.31;4897129;29;20224;-67
2021/04/12 07:03:28;;;;;;;4.67;2.80;;;;;;;4.13;100.00;101579.41;4912914;29;20192;-68
2021/04/12 07:06:22;;;;;;;6.00;2.93;;;;;;;4.22;100.00;101590.53;4913421;29;20224;-68
2021/04/12 07:09:11;;;;;;;5.50;2.57;;;;;;;4.30;100.00;101586.81;4885801;29;20204;-67
2021/04/12 07:12:10;;;;;;;4.47;2.40;;;;;;;4.60;100.00;101583.44;4912914;29;20706;-68
2021/04/12 07:15:05;;;;;;;7.40;2.73;;;;;;;4.90;100.00;101581.91;4893330;29;20642;-67
2021/04/12 07:17:30;;;;;;;6.47;3.07;;;;;;;4.67;100.00;101584.22;4913550;29;20236;-68
2021/04/12 07:20:10;;;;;;;8.67;4.70;;;;;;;4.83;100.00;101591.84;4911054;29;20247;-68
2021/04/12 07:23:02;;;;;;;3.90;2.23;;;;;;;4.85;100.00;101592.47;4897431;29;20252;-67
2021/04/12 07:25:44;;;;;;;5.53;2.00;;;;;;;4.68;100.00;101597.47;4910074;29;20664;-67
2021/04/12 07:28:19;;;;;;;6.03;2.10;;;;;;;5.15;100.00;101606.00;4899564;29;20755;-67
2021/04/12 07:31:16;;;;;;;2.90;1.80;;;;;;;5.29;100.00;101596.81;4908206;29;20283;-68
2021/04/12 07:34:03;;;;;;;3.50;2.20;;;;;;;5.19;100.00;101603.72;4895740;29;20243;-68
2021/04/12 07:36:36;;;;;;;7.20;1.93;;;;;;;5.04;100.00;101604.00;4897130;29;20742;-67
2021/04/12 07:39:39;;;;;;;4.10;1.90;;;;;;;5.37;100.00;101607.34;4863687;29;20581;-68
2021/04/12 07:42:44;;;;;;;5.83;1.80;;;;;;;5.46;99.81;101614.16;4900427;29;20231;-68
2021/04/12 07:45:25;;;;;;;4.80;1.90;;;;;;;5.52;98.83;101613.28;4905430;29;20184;-67
2021/04/12 07:48:09;;;;;;;3.97;1.60;;;;;;;5.57;97.44;101629.63;4894076;29;20213;-67
2021/04/12 07:51:25;;;;;;;4.50;1.80;;;;;;;5.91;96.98;101625.47;4878050;29;20975;-68
2021/04/12 07:54:24;;;;;;;4.50;2.00;;;;;;;5.97;95.85;101635.41;4883044;29;20245;-68
2021/04/12 07:57:15;;;;;;;4.63;1.60;;;;;;;5.85;93.57;101631.72;4884615;29;20818;-68
2021/04/12 07:59:58;;;;;;;6.03;1.70;;;;;;;5.82;95.85;101634.88;4912574;29;20204;-68
2021/04/12 08:02:44;;;;;;;2.57;1.60;;;;;;;6.12;96.15;101629.66;4912178;29;20267;-69
2021/04/12 08:05:30;;;;;;;22.40;17.43;;;;;;;6.27;94.92;101633.69;4867364;29;20207;-70
2021/04/12 08:08:20;;;;;;;19.67;10.83;;;;;;;6.33;92.02;101644.41;4885105;29;20204;-70
2021/04/12 08:10:58;;;;;;;4.30;1.77;;;;;;;6.61;90.65;101640.22;4908967;29;20231;-70
2021/04/12 08:13:50;;;;;;;3.93;1.40;;;;;;;7.06;88.27;101636.19;4906026;29;20240;-71
2021/04/12 08:16:37;;;;;;;4.47;1.50;;;;;;;7.01;84.47;101647.69;4906172;29;20777;-69
2021/04/12 08:19:15;;;;;;;2.97;1.40;;;;;;;7.08;81.83;101653.00;4913646;29;20208;-69
2021/04/12 08:22:29;;;;;;;2.57;1.10;;;;;;;6.71;81.87;101651.31;4909682;29;20228;-68
2021/04/12 08:25:23;;;;;;;4.43;1.20;;;;;;;7.06;80.12;101665.91;4879954;29;20200;-69
2021/04/12 08:28:23;;;;;;;4.70;1.30;;;;;;;6.57;78.78;101674.09;4917721;29;20244;-69
2021/04/12 08:31:24;;;;;;;4.80;1.33;;;;;;;6.69;81.53;101664.22;4916014;29;20228;-69
2021/04/12 08:34:17;;;;;;;2.83;1.20;;;;;;;6.60;79.89;101657.44;4907224;29;20235;-68
2021/04/12 08:37:09;;;;;;;5.27;1.17;;;;;;;7.21;74.75;101663.66;4899864;29;20219;-68
2021/04/12 08:40:16;;;;;;;4.53;1.30;;;;;;;7.24;74.96;101671.31;4915551;29;20671;-69
2021/04/12 08:43:01;;;;;;;4.80;1.20;;;;;;;7.82;73.34;101658.69;4857604;29;20218;-69
2021/04/12 08:46:14;;;;;;;3.83;1.10;;;;;;;7.53;68.05;101661.38;4857976;29;20359;-70
2021/04/12 08:49:05;;;;;;;3.47;1.10;;;;;;;7.33;67.40;101668.91;4878495;29;20232;-71
2021/04/12 08:51:58;;;;;;;4.47;1.00;;;;;;;7.70;63.38;101668.59;4879776;29;20767;-69
2021/04/12 08:54:33;;;;;;;3.13;0.97;;;;;;;7.34;61.95;101672.41;4897813;29;20197;-68
2021/04/12 08:57:23;;;;;;;3.73;1.00;;;;;;;7.39;61.68;101672.56;4890607;29;20231;-69
2021/04/12 09:00:46;;;;;;;2.97;1.10;;;;;;;7.64;61.85;101676.81;4916772;29;20252;-68
2021/04/12 09:03:27;;;;;;;3.33;1.20;;;;;;;7.64;64.04;101676.81;4856495;29;20704;-70
2021/04/12 09:06:09;;;;;;;6.10;1.90;;;;;;;7.54;60.81;101687.34;4842319;29;20264;-69
2021/04/12 09:08:44;;;;;;;4.27;1.10;;;;;;;7.72;63.42;101680.00;4896923;29;20224;-69
2021/04/12 09:11:47;;;;;;;3.77;1.23;;;;;;;7.68;63.18;101680.72;4914594;29;20650;-69
2021/04/12 09:14:46;;;;;;;2.50;0.97;;;;;;;8.19;57.96;101693.50;4914624;29;21247;-70
2021/04/12 09:17:49;;;;;;;2.13;0.73;;;;;;;8.12;55.69;101703.59;4913455;29;20227;-69
2021/04/12 09:20:42;;;;;;;5.73;1.20;;;;;;;8.06;59.64;101688.28;4914737;29;20243;-69
2021/04/12 09:23:48;;;;;;;1.93;0.77;;;;;;;7.97;59.79;101688.00;4915498;29;20185;-68
2021/04/12 09:26:32;;;;;;;4.00;1.27;;;;;;;7.91;61.32;101694.31;4907351;29;20310;-68
2021/04/12 09:29:49;;;;;;;4.03;1.17;;;;;;;7.99;60.30;101691.31;4916385;29;20204;-69
2021/04/12 09:32:24;;;;;;;2.37;0.80;;;;;;;7.73;60.40;101688.97;4875194;29;20332;-68
2021/04/12 09:35:14;;;;;;;2.40;0.87;;;;;;;7.53;60.74;101690.28;4896759;29;20211;-70
2021/04/12 09:37:51;;;;;;;2.50;1.00;;;;;;;7.10;64.11;101704.91;4913531;29;20243;-68
2021/04/12 09:40:26;;;;;;;4.80;1.13;;;;;;;7.13;66.06;101713.41;4915835;29;20674;-69
2021/04/12 09:43:03;;;;;;;4.43;1.07;;;;;;;7.02;68.48;101716.03;4898522;29;20674;-68
2021/04/12 09:46:07;;;;;;;3.07;1.20;;;;;;;7.99;67.78;101702.13;4914433;29;20220;-69
2021/04/12 09:48:59;;;;;;;2.87;1.00;;;;;;;8.32;62.43;101706.84;4899537;29;20200;-69
2021/04/12 09:51:49;;;;;;;1.97;0.83;;;;;;;8.84;61.72;101713.06;4898576;29;20228;-69
2021/04/12 09:54:36;;;;;;;2.60;1.30;;;;;;;9.10;62.33;101701.72;4898521;29;20254;-70
2021/04/12 09:57:28;;;;;;;1.83;0.90;;;;;;;9.05;56.45;101712.44;4898175;29;20232;-69
2021/04/12 10:00:08;;;;;;;3.10;1.07;;;;;;;8.86;58.60;101704.66;4914826;29;20192;-69
2021/04/12 10:02:55;;;;;;;2.27;1.00;;;;;;;8.18;60.80;101713.50;4898481;29;20694;-70
2021/04/12 10:05:56;;;;;;;4.70;1.10;;;;;;;8.26;62.55;101710.47;4904470;29;20207;-69
2021/04/12 10:08:26;;;;;;;2.57;0.93;;;;;;;8.96;61.04;101711.16;4920165;29;20203;-70
2021/04/12 10:11:01;;;;;;;1.70;0.93;;;;;;;9.13;58.41;101701.25;4919731;29;20262;-70
2021/04/12 10:13:37;;;;;;;3.47;0.90;;;;;;;9.44;57.53;101715.22;4917433;29;20216;-68
2021/04/12 10:16:20;;;;;;;2.70;0.80;;;;;;;9.16;54.15;101708.91;4916249;29;20224;-68
2021/04/12 10:18:50;;;;;;;1.37;0.90;;;;;;;9.61;54.93;101711.53;4899868;29;20691;-69
2021/04/12 10:21:40;;;;;;;1.83;0.70;;;;;;;10.29;53.20;101701.47;4916167;29;20228;-69
2021/04/12 10:24:37;;;;;;;3.73;0.90;;;;;;;9.85;54.34;101702.22;4916263;29;20195;-69
2021/04/12 10:27:23;;;;;;;2.00;0.60;;;;;;;9.29;52.67;101711.38;4914867;29;20236;-69
2021/04/12 10:30:00;;;;;;;2.13;0.70;;;;;;;8.83;53.58;101708.69;4899476;29;20196;-69
2021/04/12 10:32:31;;;;;;;1.20;0.60;;;;;;;9.29;50.98;101719.50;4898478;29;20787;-69
2021/04/12 10:35:05;;;;;;;1.50;0.50;;;;;;;9.15;52.79;101706.44;4915497;29;20252;-70
2021/04/12 10:37:42;;;;;;;1.30;0.60;;;;;;;9.16;52.87;101714.31;4898427;29;20224;-70
2021/04/12 10:40:19;;;;;;;4.43;1.43;;;;;;;8.79;56.97;101717.53;4913879;29;20672;-68
2021/04/12 10:42:50;;;;;;;5.20;2.07;;;;;;;8.81;58.33;101714.56;4882506;29;21030;-68
2021/04/12 10:45:50;;;;;;;1.63;0.83;;;;;;;9.39;57.18;101714.28;4898408;29;20184;-69
2021/04/12 10:48:23;;;;;;;2.50;1.00;;;;;;;9.82;58.03;101705.44;4913855;29;20246;-70
2021/04/12 10:51:17;;;;;;;2.90;0.80;;;;;;;9.74;53.10;101703.13;4913941;29;20239;-69
2021/04/12 10:53:45;;;;;;;2.10;0.80;;;;;;;10.34;53.51;101696.13;4897782;29;20256;-70
2021/04/12 10:56:34;;;;;;;2.37;0.63;;;;;;;10.51;50.72;101695.91;4913711;29;20236;-69
2021/04/12 10:59:23;;;;;;;3.97;0.80;;;;;;;10.10;51.48;101686.47;4913947;29;20196;-68
2021/04/12 11:01:57;;;;;;;1.93;1.00;;;;;;;9.30;52.94;101684.03;4912303;29;20227;-70
2021/04/12 11:05:02;;;;;;;1.07;0.50;;;;;;;9.44;53.31;101685.38;4913952;29;20216;-70
2021/04/12 11:07:40;;;;;;;2.37;0.80;;;;;;;9.24;55.12;101711.25;4892715;29;20227;-68
2021/04/12 11:10:32;;;;;;;1.77;0.67;;;;;;;9.45;53.27;101691.63;4913125;29;20196;-69
2021/04/12 11:13:10;;;;;;;1.43;0.90;;;;;;;10.03;53.09;101685.78;4870332;29;20244;-69
2021/04/12 11:16:16;;;;;;;1.37;0.70;;;;;;;10.10;51.60;101694.59;4912750;29;20766;-70
2021/04/12 11:19:12;;;;;;;1.70;0.60;;;;;;;9.93;52.96;101695.66;4897391;29;20306;-69
2021/04/12 11:21:47;;;;;;;1.57;0.70;;;;;;;10.30;50.79;101689.53;4895892;29;20252;-69
2021/04/12 11:24:18;;;;;;;0.83;0.40;;;;;;;9.23;47.11;101709.59;4882562;29;20553;-68
2021/04/12 11:27:05;;;;;;;1.30;0.50;;;;;;;9.29;48.89;101708.66;4910881;29;20224;-70
2021/04/12 11:29:33;;;;;;;2.47;0.60;;;;;;;9.57;48.77;101711.41;4914784;29;20216;-69
2021/04/12 11:32:14;;;;;;;1.23;0.63;;;;;;;8.49;53.52;101734.88;4865617;29;20733;-69
2021/04/12 11:34:47;;;;;;;2.20;0.70;;;;;;;8.72;54.82;101743.03;4866965;29;20188;-69
2021/04/12 11:37:46;;;;;;;1.03;0.60;;;;;;;8.84;56.22;101726.59;4881046;29;20312;-68
2021/04/12 11:40:22;;;;;;;2.07;1.80;;;;;;;8.70;55.69;101728.91;4883897;29;20283;-68
2021/04/12 11:43:10;;;;;;;2.53;0.87;;;;;;;8.95;57.32;101727.63;4896211;29;20207;-68
2021/04/12 11:45:54;;;;;;;1.23;0.80;;;;;;;8.70;55.69;101723.50;4896588;29;20298;-69
2021/04/12 11:48:41;;;;;;;2.30;1.00;;;;;;;8.55;58.29;101731.25;4868087;29;20200;-69
2021/04/12 11:51:15;;;;;;;2.13;1.00;;;;;;;8.73;55.88;101728.44;4913400;29;20235;-69
2021/04/12 11:53:45;;;;;;;1.67;0.87;;;;;;;8.56;57.95;101732.91;4866115;29;20220;-69
2021/04/12 11:56:58;;;;;;;2.70;0.80;;;;;;;8.26;65.16;101736.69;4881149;29;20240;-69
2021/04/12 11:59:43;;;;;;;3.60;1.40;;;;;;;7.76;68.56;101746.09;4855248;29;20218;-69
2021/04/12 12:02:14;;;;;;;2.97;0.70;;;;;;;7.71;69.01;101747.88;4861324;29;20306;-68
2021/04/12 12:04:45;;;;;;;5.73;1.00;;;;;;;7.94;67.21;101742.56;4913769;29;20689;-69
2021/04/12 12:07:19;;;;;;;3.77;0.90;;;;;;;8.36;72.07;101748.63;4866346;29;20232;-68
2021/04/12 12:09:49;;;;;;;1.03;0.73;;;;;;;9.00;62.27;101746.72;4896649;29;20222;-68
2021/04/12 12:12:24;;;;;;;1.27;0.57;;;;;;;9.70;56.52;101728.25;4864752;29;20327;-69
2021/04/12 12:15:27;;;;;;;1.03;0.40;;;;;;;9.06;53.76;101741.19;4913788;29;20263;-68
2021/04/12 12:18:10;;;;;;;0.60;0.60;;;;;;;8.99;54.16;101726.94;4912616;29;20226;-68
2021/04/12 12:20:39;;;;;;;1.50;0.50;;;;;;;8.83;52.69;101741.19;4895611;29;20232;-69
2021/04/12 12:23:22;;;;;;;1.67;0.60;;;;;;;9.19;53.23;101723.84;4911353;29;20181;-68
2021/04/12 12:25:49;;;;;;;1.53;0.57;;;;;;;9.08;53.40;101733.63;4867052;29;20816;-68
2021/04/12 12:28:42;;;;;;;2.77;0.60;;;;;;;9.11;53.25;101738.59;4865817;29;20200;-69
2021/04/12 12:31:35;;;;;;;0.50;0.50;;;;;;;9.26;53.33;101722.66;4896422;29;20243;-69
2021/04/12 12:34:16;;;;;;;0.60;0.50;;;;;;;8.84;52.55;101729.31;4911963;29;20244;-69
2021/04/12 12:36:51;;;;;;;1.10;0.50;;;;;;;9.29;50.82;101731.16;4911673;29;20937;-69
2021/04/12 12:39:25;;;;;;;1.03;0.60;;;;;;;9.72;49.98;101717.97;4896663;29;20211;-69
2021/04/12 12:41:51;;;;;;;2.10;0.50;;;;;;;9.29;47.95;101724.91;4895333;29;20355;-69
2021/04/12 12:44:22;;;;;;;1.43;0.60;;;;;;;9.52;47.42;101719.44;4866209;29;20212;-70
2021/04/12 12:46:48;;;;;;;0.60;0.50;;;;;;;9.79;48.23;101714.03;4865796;29;20220;-70
2021/04/12 12:49:23;;;;;;;1.20;0.70;;;;;;;9.87;48.50;101713.69;4866567;29;20897;-68
2021/04/12 12:52:08;;;;;;;1.53;0.70;;;;;;;10.51;48.39;101712.19;4880005;29;20232;-68
2021/04/12 12:54:54;;;;;;;1.17;0.73;;;;;;;10.34;47.22;101723.28;4912235;29;20283;-68